Time;durP1;ratioP1;P1;durP2;ratioP2;P2;SDS_P1;SDS_P2;PMS_P1;PMS_P2;Temp;Humidity;BMP_temperature;BMP_pressure;BME280_temperature;BME280_humidity;BME280_pressure;Samples;Min_cycle;Max_cycle;Signal;HPM_P1;HPM_P2
2022/08/25 00:00:28;;;;;;;12.57;3.88;;;24.80;69.70;;;;;;5007155;28;20478;-62
2022/08/25 00:02:53;;;;;;;10.90;3.67;;;24.80;69.80;;;;;;5005605;28;20026;-62
2022/08/25 00:05:19;;;;;;;7.28;3.50;;;24.80;69.80;;;;;;5003948;28;20092;-61
2022/08/25 00:07:44;;;;;;;6.45;3.72;;;24.80;69.90;;;;;;5004172;28;20036;-61
2022/08/25 00:10:10;;;;;;;10.75;5.47;;;24.70;70.10;;;;;;5005141;28;20065;-61
2022/08/25 00:12:35;;;;;;;12.02;5.13;;;24.70;70.10;;;;;;4989087;28;20032;-62
2022/08/25 00:15:05;;;;;;;12.82;5.03;;;24.70;70.20;;;;;;4988806;28;20105;-62
2022/08/25 00:17:30;;;;;;;12.90;4.50;;;24.60;70.30;;;;;;4988708;28;20064;-62
2022/08/25 00:19:56;;;;;;;10.60;3.97;;;24.60;70.40;;;;;;5008749;28;20458;-61
2022/08/25 00:22:21;;;;;;;7.30;3.95;;;24.60;70.40;;;;;;5005060;28;20034;-61
2022/08/25 00:24:47;;;;;;;11.90;4.18;;;24.50;70.50;;;;;;5005158;28;20030;-62
2022/08/25 00:27:12;;;;;;;6.72;4.00;;;24.50;70.70;;;;;;4987855;28;20018;-61
2022/08/25 00:29:38;;;;;;;6.20;3.75;;;24.50;70.70;;;;;;4987261;28;20234;-61
2022/08/25 00:32:04;;;;;;;10.13;4.15;;;24.50;70.90;;;;;;5004313;28;20026;-61
2022/08/25 00:34:34;;;;;;;6.75;3.35;;;24.40;71.00;;;;;;5005440;28;20503;-62
2022/08/25 00:37:01;;;;;;;6.05;3.80;;;24.40;71.10;;;;;;4988184;28;20108;-62
2022/08/25 00:39:26;;;;;;;8.75;3.90;;;24.40;71.20;;;;;;4972231;28;20065;-61
2022/08/25 00:41:55;;;;;;;5.47;3.45;;;24.40;71.20;;;;;;5006861;28;20151;-62
2022/08/25 00:44:20;;;;;;;8.68;3.95;;;24.30;71.30;;;;;;5006887;28;20398;-61
2022/08/25 00:46:48;;;;;;;5.95;3.45;;;24.30;71.30;;;;;;5005484;28;20056;-62
2022/08/25 00:49:29;;;;;;;5.13;3.10;;;24.30;71.40;;;;;;5006017;28;20525;-61
2022/08/25 00:52:00;;;;;;;7.93;3.40;;;24.20;71.40;;;;;;4989583;28;20045;-61
2022/08/25 00:54:27;;;;;;;6.32;3.50;;;24.20;71.50;;;;;;4987511;28;20094;-62
2022/08/25 00:56:55;;;;;;;14.18;3.40;;;24.20;71.60;;;;;;5003400;28;20017;-61
2022/08/25 00:59:21;;;;;;;6.13;3.47;;;24.20;71.70;;;;;;4985528;28;20113;-62
2022/08/25 01:01:47;;;;;;;7.18;3.20;;;24.10;71.80;;;;;;5000753;28;20114;-61
2022/08/25 01:04:13;;;;;;;4.78;3.05;;;24.10;71.90;;;;;;4989119;28;20029;-61
2022/08/25 01:06:39;;;;;;;4.00;3.05;;;24.10;72.00;;;;;;5004885;28;20088;-61
2022/08/25 01:09:06;;;;;;;5.60;3.10;;;24.10;72.10;;;;;;4987351;28;20034;-62
2022/08/25 01:11:33;;;;;;;5.35;3.22;;;24.10;72.10;;;;;;5003787;28;20040;-61
2022/08/25 01:14:02;;;;;;;8.88;3.03;;;24.00;72.30;;;;;;4988408;28;20072;-61
2022/08/25 01:16:27;;;;;;;3.28;2.97;;;24.00;72.40;;;;;;5005883;28;20428;-62
2022/08/25 01:18:59;;;;;;;4.40;2.92;;;24.00;72.50;;;;;;4987564;28;20042;-61
2022/08/25 01:21:25;;;;;;;6.22;2.97;;;23.90;72.50;;;;;;5005023;28;20030;-61
2022/08/25 01:23:51;;;;;;;4.78;2.92;;;23.90;72.60;;;;;;4987933;28;20072;-62
2022/08/25 01:26:19;;;;;;;3.55;2.78;;;23.90;72.70;;;;;;4989112;28;20049;-62
2022/08/25 01:31:30;;;;;;;5.88;2.88;;;23.80;72.80;;;;;;5004064;28;20084;-62
2022/08/25 01:33:56;;;;;;;4.72;2.63;;;23.90;72.90;;;;;;5021876;28;20018;-61
2022/08/25 01:36:22;;;;;;;4.82;3.08;;;23.80;73.00;;;;;;5003760;28;20026;-62
2022/08/25 01:38:47;;;;;;;6.72;2.97;;;23.70;73.10;;;;;;5003847;28;20626;-62
2022/08/25 01:41:35;;;;;;;6.90;2.70;;;23.70;73.30;;;;;;5003480;28;20612;-61
2022/08/25 01:44:07;;;;;;;5.07;2.85;;;23.70;73.40;;;;;;4982233;28;20089;-61
2022/08/25 01:46:32;;;;;;;4.05;2.78;;;23.60;73.40;;;;;;5004147;28;20127;-61
2022/08/25 01:49:02;;;;;;;4.05;2.90;;;23.60;73.30;;;;;;5002461;28;20060;-62
2022/08/25 01:51:29;;;;;;;6.10;2.90;;;23.60;73.40;;;;;;5003105;28;20083;-62
2022/08/25 01:53:54;;;;;;;4.30;2.90;;;23.60;73.60;;;;;;4989127;28;20034;-62
2022/08/25 01:56:20;;;;;;;4.43;2.88;;;23.60;73.70;;;;;;4987464;28;20066;-62
2022/08/25 01:58:47;;;;;;;4.97;2.85;;;23.60;73.90;;;;;;5001936;28;20038;-62
2022/08/25 02:01:16;;;;;;;3.53;2.55;;;23.50;73.90;;;;;;4984943;28;20656;-62
2022/08/25 02:03:43;;;;;;;6.97;2.60;;;23.50;74.00;;;;;;5003327;28;20548;-61
2022/08/25 02:06:19;;;;;;;3.67;2.72;;;23.50;74.10;;;;;;5001499;28;20060;-61
2022/08/25 02:08:57;;;;;;;3.60;2.70;;;23.40;74.10;;;;;;5002851;28;20030;-62
2022/08/25 02:11:23;;;;;;;2.60;2.40;;;23.40;74.30;;;;;;5003834;28;20021;-61
2022/08/25 02:13:48;;;;;;;2.65;2.40;;;23.40;74.50;;;;;;5002495;28;20117;-61
2022/08/25 02:16:16;;;;;;;4.05;2.90;;;23.30;74.50;;;;;;5004683;28;20053;-62
2022/08/25 02:18:42;;;;;;;3.15;2.70;;;23.30;74.70;;;;;;4986644;28;20069;-62
2022/08/25 02:21:10;;;;;;;4.68;2.55;;;23.30;74.70;;;;;;5003409;28;20064;-61
2022/08/25 02:23:35;;;;;;;4.25;2.53;;;23.20;74.70;;;;;;5003757;28;20104;-61
2022/08/25 02:26:01;;;;;;;4.50;2.50;;;23.20;74.90;;;;;;5005732;28;20829;-61
2022/08/25 02:28:26;;;;;;;3.80;2.75;;;23.20;75.00;;;;;;5003777;28;20775;-62
2022/08/25 02:30:52;;;;;;;2.90;2.60;;;23.20;74.90;;;;;;5003761;28;20029;-62
2022/08/25 02:33:18;;;;;;;3.65;2.67;;;23.20;75.00;;;;;;5002620;28;20042;-61
2022/08/25 02:35:43;;;;;;;2.33;2.13;;;23.20;75.00;;;;;;5002054;28;20029;-61
2022/08/25 02:38:09;;;;;;;3.90;2.85;;;23.20;75.10;;;;;;5001742;28;20033;-61
2022/08/25 02:40:34;;;;;;;4.63;2.83;;;23.20;75.10;;;;;;4983835;28;20069;-61
2022/08/25 02:43:01;;;;;;;4.47;2.80;;;23.10;75.20;;;;;;5001622;28;20038;-61
2022/08/25 02:45:26;;;;;;;4.05;2.78;;;23.10;75.30;;;;;;5003808;28;20109;-61
2022/08/25 02:47:52;;;;;;;4.93;2.65;;;23.10;75.50;;;;;;5002397;28;20117;-62
2022/08/25 02:50:18;;;;;;;4.20;2.75;;;23.00;75.60;;;;;;5002401;28;20111;-62
2022/08/25 02:52:44;;;;;;;3.75;2.47;;;23.00;75.70;;;;;;4986843;28;20030;-62
2022/08/25 02:55:12;;;;;;;4.90;2.60;;;23.00;75.70;;;;;;5002684;28;20018;-61
2022/08/25 02:57:38;;;;;;;5.28;2.85;;;23.00;75.70;;;;;;5001686;28;20432;-62
2022/08/25 03:00:05;;;;;;;3.40;3.10;;;23.00;75.90;;;;;;5001664;28;20748;-61
2022/08/25 03:02:31;;;;;;;5.68;3.45;;;22.90;75.90;;;;;;5002042;28;20649;-62
2022/08/25 03:04:56;;;;;;;7.70;3.50;;;22.90;76.10;;;;;;5004244;28;20048;-61
2022/08/25 03:07:22;;;;;;;3.60;3.10;;;22.90;76.10;;;;;;5000907;28;20041;-61
2022/08/25 03:09:47;;;;;;;6.55;4.30;;;22.80;76.10;;;;;;4985900;28;20071;-61
2022/08/25 03:12:13;;;;;;;6.75;4.38;;;22.80;76.30;;;;;;5004417;28;20421;-61
2022/08/25 03:14:39;;;;;;;4.20;3.80;;;22.80;76.50;;;;;;5004356;28;20030;-62
2022/08/25 03:17:05;;;;;;;5.70;4.10;;;22.80;76.80;;;;;;4986224;28;20038;-61
2022/08/25 03:19:31;;;;;;;5.18;3.78;;;22.80;76.80;;;;;;4987895;28;20034;-61
2022/08/25 03:21:58;;;;;;;4.82;4.00;;;22.70;76.80;;;;;;5002782;28;20048;-61
2022/08/25 03:24:24;;;;;;;4.65;3.78;;;22.70;77.00;;;;;;5002352;28;20033;-61
2022/08/25 03:26:52;;;;;;;6.25;3.38;;;22.70;77.10;;;;;;5001867;28;20478;-61
2022/08/25 03:29:18;;;;;;;4.85;3.55;;;22.70;77.10;;;;;;5003355;28;20092;-62
2022/08/25 03:31:44;;;;;;;6.20;3.47;;;22.60;77.10;;;;;;5000947;28;20053;-61
2022/08/25 03:34:19;;;;;;;5.45;3.38;;;22.60;77.10;;;;;;4986275;28;20058;-61
2022/08/25 03:36:46;;;;;;;3.78;3.13;;;22.60;77.30;;;;;;4983583;28;20032;-61
2022/08/25 03:39:11;;;;;;;5.57;3.88;;;22.60;77.20;;;;;;5016782;28;20088;-65
2022/08/25 03:41:37;;;;;;;5.10;3.20;;;22.60;77.10;;;;;;5000541;28;20069;-62
2022/08/25 03:44:03;;;;;;;4.78;3.13;;;22.60;77.20;;;;;;5002962;28;20026;-62
2022/08/25 03:46:33;;;;;;;3.60;2.90;;;22.60;77.40;;;;;;4986449;28;20034;-62
2022/08/25 03:49:03;;;;;;;3.47;3.17;;;22.60;77.50;;;;;;4988140;28;20088;-62
2022/08/25 03:51:39;;;;;;;4.53;3.78;;;22.50;77.70;;;;;;5002738;28;20797;-61
2022/08/25 03:54:04;;;;;;;8.95;4.90;;;22.50;77.60;;;;;;4988063;28;20041;-61
2022/08/25 03:56:30;;;;;;;6.13;4.65;;;22.50;77.80;;;;;;5001971;28;20018;-61
2022/08/25 03:58:55;;;;;;;6.57;4.20;;;22.50;77.90;;;;;;4985361;28;20026;-61
2022/08/25 04:01:22;;;;;;;5.18;3.70;;;22.40;77.90;;;;;;5001955;28;20065;-61
2022/08/25 04:03:47;;;;;;;4.15;3.75;;;22.50;78.00;;;;;;5001140;28;20038;-61
2022/08/25 04:06:14;;;;;;;6.57;3.92;;;22.50;78.10;;;;;;4984191;28;20030;-61
2022/08/25 04:08:39;;;;;;;5.97;3.70;;;22.50;78.20;;;;;;5000560;28;20022;-61
2022/08/25 04:11:10;;;;;;;5.28;3.45;;;22.30;78.20;;;;;;4999975;28;20887;-62
2022/08/25 04:13:36;;;;;;;4.10;3.70;;;22.40;78.20;;;;;;4987418;28;20049;-61
2022/08/25 04:16:03;;;;;;;6.22;4.20;;;22.40;78.30;;;;;;4987670;28;20148;-62
2022/08/25 04:18:30;;;;;;;4.53;3.60;;;22.40;78.30;;;;;;5002179;28;20125;-61
2022/08/25 04:21:05;;;;;;;5.43;3.67;;;22.30;78.30;;;;;;4997496;28;20124;-62
2022/08/25 04:23:31;;;;;;;8.25;3.78;;;22.30;78.50;;;;;;5001486;28;20030;-61
2022/08/25 04:25:57;;;;;;;9.32;3.80;;;22.30;78.60;;;;;;4983495;28;20061;-62
2022/08/25 04:28:22;;;;;;;10.50;4.50;;;22.30;78.60;;;;;;5033999;28;20033;-61
2022/08/25 04:30:48;;;;;;;7.07;4.35;;;22.20;78.60;;;;;;5001281;28;20049;-61
2022/08/25 04:33:13;;;;;;;6.00;3.85;;;22.30;78.70;;;;;;5002885;28;20026;-62
2022/08/25 04:35:40;;;;;;;6.38;4.05;;;22.20;78.70;;;;;;5003955;28;20030;-62
2022/08/25 04:38:05;;;;;;;5.93;4.00;;;22.20;78.80;;;;;;5005391;28;20029;-61
2022/08/25 04:40:31;;;;;;;6.40;4.10;;;22.20;78.90;;;;;;5006091;28;20094;-61
2022/08/25 04:42:56;;;;;;;5.07;3.90;;;22.20;79.00;;;;;;5000129;28;20104;-61
2022/08/25 04:45:22;;;;;;;5.97;4.20;;;22.20;79.10;;;;;;4997854;28;20030;-61
2022/08/25 04:47:48;;;;;;;6.47;4.07;;;22.20;79.10;;;;;;5001244;28;20049;-61
2022/08/25 04:50:13;;;;;;;5.43;4.18;;;22.20;79.30;;;;;;5001514;28;21097;-61
2022/08/25 04:52:39;;;;;;;5.97;4.18;;;22.10;79.30;;;;;;5000129;28;20026;-62
2022/08/25 04:55:05;;;;;;;8.23;4.05;;;22.20;79.50;;;;;;4987312;28;20026;-61
2022/08/25 04:57:30;;;;;;;4.32;3.47;;;22.20;79.50;;;;;;4998164;28;20077;-61
2022/08/25 04:59:56;;;;;;;4.85;3.95;;;22.10;79.50;;;;;;5003499;28;20045;-62
2022/08/25 05:02:24;;;;;;;7.93;3.60;;;22.10;79.70;;;;;;5002712;28;20113;-62
2022/08/25 05:04:49;;;;;;;5.75;4.00;;;22.10;79.80;;;;;;4984779;28;20777;-61
2022/08/25 05:07:15;;;;;;;7.80;3.53;;;22.00;79.80;;;;;;5034140;28;20073;-62
2022/08/25 05:09:40;;;;;;;10.40;3.40;;;22.00;79.80;;;;;;5002361;28;20156;-61
2022/08/25 05:12:06;;;;;;;10.65;3.83;;;22.00;80.00;;;;;;5001022;28;20038;-61
2022/08/25 05:14:31;;;;;;;6.95;3.60;;;22.00;79.90;;;;;;4995344;28;20113;-61
2022/08/25 05:16:57;;;;;;;8.60;4.13;;;22.00;79.90;;;;;;4994068;28;20022;-62
2022/08/25 05:19:23;;;;;;;8.75;3.63;;;22.00;79.90;;;;;;5013361;28;20571;-61
2022/08/25 05:21:48;;;;;;;14.05;3.83;;;22.00;79.90;;;;;;4998615;28;20034;-61
2022/08/25 05:24:14;;;;;;;19.73;4.13;;;22.00;79.90;;;;;;4981451;28;21089;-61
2022/08/25 05:26:40;;;;;;;13.65;4.00;;;22.00;79.80;;;;;;4998362;28;20072;-61
2022/08/25 05:29:05;;;;;;;13.25;4.03;;;22.00;79.80;;;;;;5000940;28;20430;-61
2022/08/25 05:31:31;;;;;;;18.02;5.00;;;22.00;79.90;;;;;;4999386;28;20053;-62
2022/08/25 05:33:57;;;;;;;13.05;4.25;;;22.00;79.80;;;;;;4978683;28;20042;-61
2022/08/25 05:36:23;;;;;;;16.65;4.65;;;22.00;79.70;;;;;;4993609;28;20029;-62
2022/08/25 05:38:49;;;;;;;15.30;4.70;;;21.90;79.60;;;;;;4982492;28;20061;-61
2022/08/25 05:41:16;;;;;;;18.88;4.60;;;22.00;79.70;;;;;;4995816;28;20116;-61
2022/08/25 05:43:42;;;;;;;18.75;5.53;;;21.90;79.70;;;;;;4989024;28;20042;-62
2022/08/25 05:46:08;;;;;;;23.00;5.40;;;21.90;79.70;;;;;;4977430;28;20033;-61
2022/08/25 05:48:34;;;;;;;23.63;5.57;;;21.90;79.70;;;;;;4992426;28;20053;-61
2022/08/25 05:51:01;;;;;;;23.38;6.43;;;21.90;80.10;;;;;;4996327;28;20025;-61
2022/08/25 05:53:27;;;;;;;18.55;5.43;;;21.90;81.00;;;;;;4997723;28;20133;-61
2022/08/25 05:55:53;;;;;;;31.40;5.63;;;21.90;81.70;;;;;;4994718;28;20634;-61
2022/08/25 05:58:19;;;;;;;39.75;6.78;;;21.90;82.00;;;;;;4995914;28;20120;-62
2022/08/25 06:00:44;;;;;;;38.83;6.70;;;21.80;82.60;;;;;;4995694;28;20740;-61
2022/08/25 06:03:10;;;;;;;40.75;7.93;;;21.70;82.80;;;;;;4996814;28;20053;-61
2022/08/25 06:05:35;;;;;;;30.40;7.65;;;21.70;83.70;;;;;;4995307;28;20056;-61
2022/08/25 06:08:01;;;;;;;44.83;8.55;;;21.70;84.10;;;;;;4977195;28;20034;-61
2022/08/25 06:10:27;;;;;;;29.23;7.03;;;21.70;84.40;;;;;;4990864;28;20065;-61
2022/08/25 06:12:52;;;;;;;28.88;6.60;;;21.60;84.80;;;;;;4996883;28;20037;-61
2022/08/25 06:15:20;;;;;;;28.38;7.20;;;21.60;85.10;;;;;;5006438;28;20798;-61
2022/08/25 06:17:46;;;;;;;33.17;7.43;;;21.50;85.70;;;;;;4993163;28;20566;-62
2022/08/25 06:20:23;;;;;;;30.42;6.38;;;21.40;86.10;;;;;;4989337;28;20081;-62
2022/08/25 06:22:48;;;;;;;31.75;6.78;;;21.40;86.40;;;;;;4987549;28;20521;-61
2022/08/25 06:25:16;;;;;;;29.55;7.03;;;21.40;86.70;;;;;;4975842;28;20045;-61
2022/08/25 06:27:42;;;;;;;27.40;7.50;;;21.30;86.70;;;;;;4975916;28;20084;-61
2022/08/25 06:30:09;;;;;;;19.85;6.35;;;21.30;87.20;;;;;;4991845;28;20057;-61
2022/08/25 06:32:35;;;;;;;16.55;5.93;;;21.30;87.40;;;;;;4990697;28;20029;-61
2022/08/25 06:35:05;;;;;;;15.98;5.90;;;21.20;87.60;;;;;;4994897;28;20060;-61
2022/08/25 06:37:31;;;;;;;17.27;5.82;;;21.20;88.00;;;;;;4986356;28;20037;-61
2022/08/25 06:39:56;;;;;;;24.40;6.28;;;21.20;88.30;;;;;;4991974;28;20143;-61
2022/08/25 06:42:22;;;;;;;21.40;5.93;;;21.20;88.60;;;;;;4989758;28;20073;-61
2022/08/25 06:44:47;;;;;;;12.18;6.30;;;21.20;89.00;;;;;;4990124;28;20053;-63
2022/08/25 06:47:14;;;;;;;19.95;6.00;;;21.20;89.20;;;;;;4992466;28;20141;-61
2022/08/25 06:49:41;;;;;;;17.00;5.90;;;21.20;89.40;;;;;;4994413;28;20052;-61
2022/08/25 06:52:07;;;;;;;14.93;5.80;;;21.10;89.30;;;;;;4992365;28;20021;-61
2022/08/25 06:54:32;;;;;;;19.90;5.78;;;21.20;89.40;;;;;;4991033;28;20044;-61
2022/08/25 06:56:58;;;;;;;16.05;5.78;;;21.10;89.40;;;;;;4995363;28;20525;-61
2022/08/25 06:59:24;;;;;;;11.27;5.70;;;21.10;89.30;;;;;;4996234;28;20045;-62
2022/08/25 07:01:49;;;;;;;12.65;5.72;;;21.10;89.10;;;;;;4996352;28;20697;-61
2022/08/25 07:04:15;;;;;;;25.60;6.22;;;21.20;89.00;;;;;;4988148;28;20092;-61
2022/08/25 07:06:41;;;;;;;16.30;5.72;;;21.10;89.10;;;;;;4993907;28;20133;-61
2022/08/25 07:09:06;;;;;;;21.13;5.95;;;21.10;88.90;;;;;;4991946;28;20133;-61
2022/08/25 07:11:33;;;;;;;19.45;6.13;;;21.20;89.00;;;;;;5004321;28;20116;-61
2022/08/25 07:14:00;;;;;;;20.75;5.90;;;21.20;88.70;;;;;;4990314;28;20036;-61
2022/08/25 07:16:26;;;;;;;16.00;5.50;;;21.20;88.40;;;;;;4991127;28;20022;-61
2022/08/25 07:18:55;;;;;;;18.38;5.75;;;21.20;88.40;;;;;;4972158;28;20045;-61
2022/08/25 07:21:21;;;;;;;18.27;5.80;;;21.20;88.30;;;;;;4988393;28;20113;-60
2022/08/25 07:23:47;;;;;;;18.85;5.80;;;21.20;88.00;;;;;;4990749;28;20026;-61
2022/08/25 07:26:15;;;;;;;20.23;5.10;;;21.30;88.10;;;;;;4982621;28;20562;-61
2022/08/25 07:28:41;;;;;;;15.20;5.38;;;21.20;88.20;;;;;;5001847;28;20041;-61
2022/08/25 07:31:06;;;;;;;20.40;5.10;;;21.20;88.40;;;;;;4994177;28;20026;-61
2022/08/25 07:33:32;;;;;;;15.65;5.40;;;21.20;88.40;;;;;;5010019;28;21394;-61
2022/08/25 07:35:57;;;;;;;20.88;5.40;;;21.20;89.00;;;;;;4983806;28;20073;-61
2022/08/25 07:38:23;;;;;;;25.23;5.75;;;21.20;88.10;;;;;;4994625;28;20073;-61
2022/08/25 07:40:53;;;;;;;28.77;6.22;;;21.20;88.00;;;;;;4994455;28;20473;-61
2022/08/25 07:43:19;;;;;;;34.67;7.00;;;21.20;87.90;;;;;;4977721;28;20129;-61
2022/08/25 07:45:45;;;;;;;33.95;5.45;;;21.20;87.70;;;;;;4996377;28;20033;-61
2022/08/25 07:48:10;;;;;;;18.83;5.80;;;21.20;87.40;;;;;;4994761;28;20026;-61
2022/08/25 07:50:37;;;;;;;31.02;6.43;;;21.30;87.30;;;;;;5008303;28;20092;-62
2022/08/25 07:53:03;;;;;;;15.63;5.32;;;21.30;87.20;;;;;;4991553;28;20837;-61
2022/08/25 07:55:29;;;;;;;35.88;6.80;;;21.30;87.30;;;;;;4992990;28;20124;-61
2022/08/25 07:57:55;;;;;;;42.95;6.68;;;21.30;86.60;;;;;;4988544;28;20045;-61
2022/08/25 08:00:21;;;;;;;33.08;6.20;;;21.30;86.40;;;;;;5010306;28;20243;-61
2022/08/25 08:02:46;;;;;;;29.88;5.88;;;21.40;86.40;;;;;;4975281;28;20425;-62
2022/08/25 08:05:12;;;;;;;25.73;6.28;;;21.40;86.00;;;;;;5025932;28;20069;-61
2022/08/25 08:07:38;;;;;;;41.15;5.88;;;21.40;85.70;;;;;;4997136;28;20103;-61
2022/08/25 08:10:05;;;;;;;14.77;5.18;;;21.50;85.80;;;;;;4956054;28;20037;-61
2022/08/25 08:12:30;;;;;;;17.98;5.07;;;21.50;85.40;;;;;;4998197;28;20014;-61
2022/08/25 08:14:57;;;;;;;22.00;4.68;;;21.50;85.00;;;;;;4993185;28;20576;-62
2022/08/25 08:17:23;;;;;;;22.85;4.85;;;21.50;84.70;;;;;;4997177;28;20548;-61
2022/08/25 08:19:49;;;;;;;24.52;5.05;;;21.50;84.50;;;;;;4999265;28;20022;-61
2022/08/25 08:22:14;;;;;;;27.63;4.80;;;21.60;84.30;;;;;;4972285;28;20476;-61
2022/08/25 08:24:40;;;;;;;17.75;4.60;;;21.60;84.10;;;;;;4984182;28;20030;-61
2022/08/25 08:27:07;;;;;;;27.80;4.60;;;21.60;83.90;;;;;;4993668;28;20038;-61
2022/08/25 08:29:33;;;;;;;25.90;5.30;;;21.60;83.60;;;;;;5015827;28;20083;-61
2022/08/25 08:31:59;;;;;;;23.52;6.20;;;21.70;83.30;;;;;;4994172;28;20065;-61
2022/08/25 08:34:25;;;;;;;26.45;4.97;;;21.60;83.20;;;;;;4992686;28;20140;-61
2022/08/25 08:36:51;;;;;;;22.58;5.18;;;21.70;83.60;;;;;;4994659;28;20670;-62
2022/08/25 08:39:16;;;;;;;18.20;4.60;;;21.70;82.90;;;;;;4989889;28;20041;-61
2022/08/25 08:44:45;;;;;;;24.95;5.43;;;21.80;82.40;;;;;;4994141;28;20053;-61
2022/08/25 08:47:22;;;;;;;20.33;5.60;;;21.80;82.50;;;;;;4993571;28;20042;-62
2022/08/25 08:50:33;;;;;;;30.58;6.00;;;21.80;82.40;;;;;;5011901;28;20490;-62
2022/08/25 08:53:05;;;;;;;32.28;5.80;;;21.80;82.50;;;;;;4976412;28;20044;-61
2022/08/25 08:55:34;;;;;;;25.23;5.03;;;21.80;82.40;;;;;;4992283;28;20524;-62
2022/08/25 08:58:02;;;;;;;27.00;5.70;;;21.80;82.40;;;;;;4980984;28;20037;-65
2022/08/25 09:00:28;;;;;;;28.85;5.50;;;21.80;82.40;;;;;;5009412;28;20045;-62
2022/08/25 09:03:06;;;;;;;35.85;6.82;;;21.90;82.60;;;;;;4979004;28;20061;-62
2022/08/25 09:05:46;;;;;;;26.15;5.50;;;21.90;82.60;;;;;;4981534;28;20034;-62
2022/08/25 09:08:12;;;;;;;43.00;7.45;;;21.90;82.50;;;;;;4994803;28;20537;-62
2022/08/25 09:10:44;;;;;;;43.97;7.28;;;21.90;82.60;;;;;;4974473;28;20053;-66
2022/08/25 09:13:33;;;;;;;44.60;7.18;;;22.00;82.90;;;;;;4988465;28;20026;-62
2022/08/25 09:19:13;;;;;;;53.78;8.13;;;22.00;82.20;;;;;;4980396;28;20036;-62
2022/08/25 09:21:45;;;;;;;62.55;9.10;;;22.10;82.60;;;;;;4969005;28;20080;-62
2022/08/25 09:24:31;;;;;;;70.45;9.25;;;22.10;82.20;;;;;;5007580;28;20037;-62
2022/08/25 09:27:14;;;;;;;62.20;9.82;;;22.10;82.00;;;;;;4978254;28;20392;-62
2022/08/25 09:30:00;;;;;;;45.42;8.27;;;22.20;82.10;;;;;;4988409;28;20627;-62
2022/08/25 09:32:28;;;;;;;41.22;7.70;;;22.20;83.00;;;;;;5002319;28;20784;-62
2022/08/25 09:34:54;;;;;;;43.53;8.32;;;22.30;82.70;;;;;;4972713;28;20523;-62
2022/08/25 09:37:20;;;;;;;42.45;7.15;;;22.30;82.30;;;;;;4968907;28;20050;-62
2022/08/25 09:39:45;;;;;;;45.17;7.38;;;22.30;82.50;;;;;;4987248;28;20037;-62
2022/08/25 09:42:11;;;;;;;40.25;7.60;;;22.40;82.50;;;;;;4996040;28;20045;-62
2022/08/25 09:44:42;;;;;;;31.10;6.75;;;22.40;82.80;;;;;;4996291;28;20034;-62
2022/08/25 09:47:17;;;;;;;46.00;8.88;;;22.40;82.70;;;;;;4971606;28;22600;-62
2022/08/25 09:49:49;;;;;;;36.28;7.55;;;22.50;82.40;;;;;;4989139;28;20041;-62
2022/08/25 09:52:25;;;;;;;31.98;7.45;;;22.50;82.40;;;;;;4987164;28;20120;-62
2022/08/25 09:54:51;;;;;;;;;;;22.60;82.20;;;;;;5003452;28;20037;-62
2022/08/25 09:57:27;;;;;;;29.50;6.72;;;22.60;82.10;;;;;;4989252;28;19935;-62
2022/08/25 09:59:52;;;;;;;32.70;6.30;;;22.60;81.80;;;;;;4987761;28;20018;-62
2022/08/25 10:02:27;;;;;;;19.92;6.15;;;22.70;81.80;;;;;;4992604;28;21346;-62
2022/08/25 10:04:53;;;;;;;35.15;6.70;;;22.70;81.40;;;;;;4966874;28;20030;-62
2022/08/25 10:07:25;;;;;;;79.00;10.48;;;22.80;81.30;;;;;;4988007;28;20041;-63
2022/08/25 10:09:55;;;;;;;48.90;8.73;;;22.80;81.10;;;;;;4989956;28;21822;-62
2022/08/25 10:12:30;;;;;;;36.65;8.13;;;22.80;80.70;;;;;;4985121;28;20728;-62
2022/08/25 10:14:55;;;;;;;49.50;7.75;;;22.90;80.30;;;;;;4954331;28;20042;-62
2022/08/25 10:17:30;;;;;;;36.28;7.72;;;22.90;80.10;;;;;;4991015;28;20478;-62
2022/08/25 10:20:21;;;;;;;79.88;11.15;;;23.00;79.80;;;;;;4983659;28;20038;-62
2022/08/25 10:22:47;;;;;;;44.53;7.43;;;23.00;79.50;;;;;;4983242;28;20057;-62
2022/08/25 10:25:14;;;;;;;39.42;7.25;;;23.00;79.30;;;;;;5016931;28;21087;-62
2022/08/25 10:27:57;;;;;;;57.85;8.55;;;23.10;79.20;;;;;;4987923;28;20164;-63
2022/08/25 10:30:27;;;;;;;57.20;8.48;;;23.10;79.20;;;;;;4988357;28;20060;-62
2022/08/25 10:33:20;;;;;;;51.90;8.02;;;23.20;79.10;;;;;;4969525;28;20034;-62
2022/08/25 10:36:17;;;;;;;41.70;6.88;;;23.20;79.00;;;;;;4991799;28;20045;-62
2022/08/25 10:38:56;;;;;;;42.67;7.60;;;23.30;78.80;;;;;;5000271;28;20033;-62
2022/08/25 10:41:46;;;;;;;53.65;8.52;;;23.30;78.00;;;;;;4983682;28;20121;-64
2022/08/25 10:47:20;;;;;;;23.00;5.15;;;23.40;77.70;;;;;;4981238;28;20135;-64
2022/08/25 10:49:48;;;;;;;29.92;6.10;;;23.50;77.30;;;;;;4988594;28;20481;-62
2022/08/25 10:52:23;;;;;;;19.05;5.80;;;23.50;77.50;;;;;;4991062;28;20766;-62
2022/08/25 10:55:03;;;;;;;26.92;5.28;;;23.50;77.20;;;;;;4968977;28;20038;-63
2022/08/25 10:57:43;;;;;;;21.45;5.75;;;23.60;77.20;;;;;;4989162;28;20034;-62
2022/08/25 11:00:21;;;;;;;28.77;5.65;;;23.60;77.00;;;;;;5005554;28;20145;-63
2022/08/25 11:03:01;;;;;;;27.55;5.93;;;23.70;77.10;;;;;;4992405;28;20026;-62
2022/08/25 11:05:31;;;;;;;23.52;5.57;;;23.70;76.80;;;;;;5005122;28;20072;-62
2022/08/25 11:08:08;;;;;;;28.77;5.68;;;23.80;76.90;;;;;;4988865;28;20944;-62
2022/08/25 11:10:47;;;;;;;28.42;5.80;;;23.80;77.00;;;;;;4993044;28;20037;-62
2022/08/25 11:13:37;;;;;;;24.98;5.13;;;23.90;77.00;;;;;;4992315;28;20052;-63
2022/08/25 11:16:10;;;;;;;35.58;6.57;;;23.90;76.60;;;;;;4989885;28;20045;-63
2022/08/25 11:18:36;;;;;;;31.85;5.60;;;24.00;76.50;;;;;;4989896;28;20115;-63
2022/08/25 11:21:14;;;;;;;20.45;5.30;;;24.00;76.30;;;;;;4999529;28;20037;-62
2022/08/25 11:23:46;;;;;;;31.90;6.00;;;24.10;76.00;;;;;;4980962;28;20041;-63
2022/08/25 11:26:12;;;;;;;38.28;6.45;;;24.10;75.90;;;;;;4962763;28;20030;-62
2022/08/25 11:28:53;;;;;;;28.67;5.43;;;24.20;75.70;;;;;;4968240;28;20485;-63
2022/08/25 11:31:18;;;;;;;32.80;6.40;;;24.30;75.50;;;;;;4986003;28;20026;-63
2022/08/25 11:33:44;;;;;;;23.42;5.57;;;24.40;75.20;;;;;;4983856;28;20086;-63
2022/08/25 11:36:16;;;;;;;30.23;6.38;;;24.50;74.60;;;;;;4988542;28;20041;-63
2022/08/25 11:39:16;;;;;;;20.33;4.95;;;24.60;74.20;;;;;;5006999;28;20033;-63
2022/08/25 11:41:54;;;;;;;23.30;5.60;;;24.70;73.80;;;;;;4983082;28;20104;-63
2022/08/25 11:44:54;;;;;;;20.08;4.63;;;24.80;73.40;;;;;;4985821;28;20104;-63
2022/08/25 11:47:51;;;;;;;28.92;4.82;;;24.90;73.10;;;;;;4986928;28;21710;-61
2022/08/25 11:50:27;;;;;;;15.27;4.40;;;25.00;72.60;;;;;;4993029;28;20050;-61
2022/08/25 11:52:54;;;;;;;13.18;4.38;;;25.00;72.50;;;;;;4988149;28;20075;-61
2022/08/25 11:55:38;;;;;;;20.10;4.43;;;25.10;72.10;;;;;;4979618;28;20037;-61
2022/08/25 11:58:42;;;;;;;20.45;5.22;;;25.20;71.90;;;;;;4992210;28;20042;-63
2022/08/25 12:01:27;;;;;;;101.25;12.20;;;25.30;71.70;;;;;;4994596;28;20946;-63
2022/08/25 12:03:53;;;;;;;23.13;4.50;;;25.40;70.70;;;;;;4989562;28;20030;-61
2022/08/25 12:06:29;;;;;;;31.70;5.53;;;25.60;70.60;;;;;;4996064;28;20052;-63
2022/08/25 12:09:04;;;;;;;32.30;6.18;;;25.60;70.40;;;;;;5009365;28;20045;-63
2022/08/25 12:11:56;;;;;;;65.15;9.10;;;25.70;70.30;;;;;;4997782;28;20129;-62
2022/08/25 12:14:25;;;;;;;61.20;9.75;;;25.80;69.90;;;;;;5011161;28;20085;-62
2022/08/25 12:16:52;;;;;;;43.47;8.18;;;25.80;69.50;;;;;;4994738;28;20065;-62
2022/08/25 12:19:35;;;;;;;67.28;9.75;;;25.90;69.30;;;;;;4985386;28;20038;-62
2022/08/25 12:22:01;;;;;;;120.95;13.10;;;26.00;68.80;;;;;;4994746;28;20819;-64
2022/08/25 12:24:41;;;;;;;58.35;7.93;;;26.00;68.30;;;;;;4988183;28;20152;-62
2022/08/25 12:27:29;;;;;;;51.45;8.77;;;26.10;67.30;;;;;;4989144;28;20042;-62
2022/08/25 12:30:09;;;;;;;61.70;8.00;;;26.20;67.40;;;;;;4982298;28;20430;-62
2022/08/25 12:32:56;;;;;;;68.35;9.07;;;26.30;67.20;;;;;;4990089;28;20025;-62
2022/08/25 12:35:31;;;;;;;58.58;9.18;;;26.40;66.80;;;;;;4993958;28;20037;-63
2022/08/25 12:37:57;;;;;;;;;;;26.40;67.30;;;;;;5011420;28;20105;-64
2022/08/25 12:40:58;;;;;;;;;;;26.50;66.70;;;;;;4993778;28;20034;-63
2022/08/25 12:43:34;;;;;;;36.70;6.13;;;26.60;66.20;;;;;;5004462;28;19969;-63
2022/08/25 12:46:18;;;;;;;46.13;7.88;;;26.70;66.40;;;;;;4960773;28;20524;-63
2022/08/25 12:48:57;;;;;;;29.15;6.75;;;26.80;66.00;;;;;;4993274;28;20037;-63
2022/08/25 12:51:25;;;;;;;45.78;6.10;;;26.80;65.10;;;;;;4987523;28;20080;-63
2022/08/25 12:53:58;;;;;;;34.75;5.75;;;26.90;65.00;;;;;;4993528;28;20081;-62
2022/08/25 12:56:36;;;;;;;37.55;6.75;;;26.90;64.40;;;;;;4974878;28;20034;-62
2022/08/25 12:59:01;;;;;;;57.22;5.80;;;27.00;64.50;;;;;;4992255;28;20087;-63
2022/08/25 13:01:37;;;;;;;40.72;6.80;;;27.10;64.00;;;;;;4994235;28;21174;-63
2022/08/25 13:04:15;;;;;;;43.40;7.13;;;27.10;64.10;;;;;;4994142;28;20100;-63